Hauptseite
METAR-TAF:

METAR-TAF

Flughäfen :

Bozen, Italien

Breite: 46-28N, Länge: 011-20E, Höhe: 262 m

Beobachtung

Neuester Wetterbericht von vor 5 Stunden und 17 Minuten, um 20:50 UTC
Wind 1 kt aus unterschiedlichen Richtungen
Temperatur 21°C
Luftfeuchtigkeit 78%
Luftdruck 1010 hPa
Sichtweite 10 km oder mehr
Leicht bewölkt in der Höhe von 8000 ft

METAR: LIPB 162050Z VRB01KT 9999 FEW080 21/17 Q1010

Zeit: 04:07 (02:07 UTC)

Prognose

Neuester Wetterbericht von vor 9 Stunden und 7 Minuten, um 17:00 UTC
Gültige Prognose vom 16 um 18 UTC bis 17 um 18 UTC
Wind 5 kt aus unterschiedlichen Richtungen
Sichtweite 10 km oder mehr
Aufgelockert bewölkt in der Höhe von 2500 ft
Zeitweise
vom 16 um 18 UTC bis 16 um 21 UTC
Gewitter, Regen

TAF: LIPB 161700Z 1618/1718 VRB05KT 9999 SCT025 TEMPO 1618/1621 TSRA

Wetterbeobachtungen und Prognosen von mehr als 4000 Flughäfen (METAR und TAF Bericht).

Die verfügbaren Stationen werden durch gelbe und rote Markierungen auf der Karte dargestellt.

Führen Sie die Maus auf sie, um den Namen der Station zu sehen.

Darauf klicken, um die Beobachtung von Wetterbeobachtungen und Prognosen zu sehen.

Um die Karte zu ändern : klicken Sie auf den grünen Tasten mit einem schwarzen Kreuz Zum Vergrößern, auf den grünen Button mit einem Gedankenstrich zu verkleinern, oder auf die grünen Pfeile für benachbarte Karten.


METAR-TAF: